Flight Track Log - Related Links

Times and Time Zones

All times are in EDT time to prevent confusion due to time zone crossing. See the DAL1903 flight status page for this flight to view local times or setup timezone preferences in your user account.


Time Position Orientation Groundspeed Altitude Reporting Facility
EDT Latitude Longitude Course Direction KTS MPH feet Rate Location/Type
Thu 10:57:22 AM 40.7333 -73.8333 237° Southwest 209 241 1,800  Level New York TRACON
Thu 10:58:22 AM 40.7667 -73.7833 49° Northeast 215 247 4,600 2,650 Climbing New York TRACON
Thu 10:59:00 AM 40.6273 -74.2939 244° Southwest  Level FlightAware Approximate
Thu 10:59:22 AM 40.8167 -73.8167 333° Northwest 280 322 7,100  Level New York TRACON
Thu 11:00:00 AM 40.5765 -74.4372 246° West  Level FlightAware Approximate
Thu 11:00:22 AM 40.8500 -73.9167 294° West 311 358 10,200  Level New York TRACON
Thu 11:01:00 AM 40.5333 -74.5834 270° West  Level FlightAware Approximate
Thu 11:01:22 AM 40.8167 -74.0333 249° West 324 373 11,900  Level New York TRACON
Thu 11:02:00 AM 40.4872 -74.7255 237° Southwest  Level FlightAware Approximate
Thu 11:02:22 AM 40.8000 -74.1667 261° West 382 440 13,400  Level New York TRACON
Thu 11:04:22 AM 40.6844 -74.4217 239° Southwest 430 495 17,000 1,525 Climbing New York Center
Thu 11:05:23 AM 40.6258 -74.5636 241° Southwest 440 506 18,000 1,438 Climbing New York Center
Thu 11:06:23 AM 40.5628 -74.7047 240° Southwest 445 512 19,900 1,866 Climbing New York Center
Thu 11:07:22 AM 40.4992 -74.8567 241° Southwest 457 526 21,700 1,714 Climbing New York Center
Thu 11:08:22 AM 40.4317 -75.0028 239° Southwest 470 541 23,300 1,785 Climbing New York Center
Thu 11:09:23 AM 40.3636 -75.1539 239° Southwest 475 547 25,300 2,033 Climbing New York Center
Thu 11:10:23 AM 40.2714 -75.2786 226° Southwest 476 548 27,400 1,692 Climbing New York Center
Thu 11:11:20 AM 40.1733 -75.3889 221° Southwest 476 548 28,600 1,322 Climbing New York Center
Thu 11:12:21 AM 40.0839 -75.4889 221° Southwest 471 542 30,000 1,328 Climbing New York Center
Thu 11:13:22 AM 39.9856 -75.5986 221° Southwest 471 542 31,300 927 Climbing New York Center
Thu 11:14:24 AM 39.8953 -75.7169 225° Southwest 471 542 31,900 353 Climbing New York Center
Thu 11:15:21 AM 39.8147 -75.8436 230° Southwest 466 536 32,000 51 Climbing New York Center
Thu 11:16:21 AM 39.7339 -75.9728 231° Southwest 466 536 32,000  Level New York Center
Thu 11:18:10 AM 39.5869 -76.2056 231° Southwest 466 536 32,000  Level Washington Center
Thu 11:19:11 AM 39.5031 -76.3283 228° Southwest 466 536 32,000  Level Washington Center
Thu 11:20:12 AM 39.4208 -76.4567 230° Southwest 466 536 32,000  Level Washington Center
Thu 11:21:12 AM 39.3386 -76.5817 230° Southwest 466 536 32,000  Level Washington Center
Thu 11:22:12 AM 39.2583 -76.7067 230° Southwest 466 536 32,000  Level Washington Center
Thu 11:23:10 AM 39.1694 -76.8444 230° Southwest 466 536 32,000  Level Washington Center
Thu 11:24:10 AM 39.0994 -76.9556 231° Southwest 466 536 32,000  Level Washington Center
Thu 11:25:12 AM 39.0231 -77.0639 228° Southwest 448 516 32,000  Level Washington Center
Thu 11:26:12 AM 38.9344 -77.1581 220° Southwest 426 490 32,000  Level Washington Center
Thu 11:27:11 AM 38.8433 -77.2600 221° Southwest 426 490 32,000  Level Washington Center
Thu 11:28:11 AM 38.7544 -77.3567 220° Southwest 426 490 32,000  Level Washington Center
Thu 11:29:12 AM 38.6614 -77.4581 220° Southwest 437 503 32,000  Level Washington Center
Thu 11:30:10 AM 38.5594 -77.5669 220° Southwest 437 503 32,000  Level Washington Center
Thu 11:31:11 AM 38.4681 -77.6681 221° Southwest 437 503 32,000  Level Washington Center
Thu 11:32:11 AM 38.3789 -77.7661 221° Southwest 437 503 32,000  Level Washington Center
Thu 11:33:11 AM 38.2894 -77.8667 221° Southwest 437 503 32,000  Level Washington Center
Thu 11:34:12 AM 38.2000 -77.9617 220° Southwest 437 503 32,000  Level Washington Center
Thu 11:35:13 AM 38.1061 -78.0617 220° Southwest 437 503 32,000  Level Washington Center
Thu 11:36:11 AM 38.0167 -78.1564 220° Southwest 437 503 32,000  Level Washington Center
Thu 11:37:11 AM 37.9250 -78.2453 217° Southwest 425 489 32,000  Level Washington Center
Thu 11:38:12 AM 37.8269 -78.3367 216° Southwest 432 497 32,000  Level Washington Center
Thu 11:39:12 AM 37.7311 -78.4275 217° Southwest 437 503 32,000  Level Washington Center
Thu 11:40:10 AM 37.6436 -78.5083 216° Southwest 442 509 32,000  Level Washington Center
Thu 11:41:11 AM 37.5433 -78.5986 216° Southwest 442 509 32,000  Level Washington Center
Thu 11:42:12 AM 37.4469 -78.6917 217° Southwest 442 509 32,000  Level Washington Center
Thu 11:43:10 AM 37.3489 -78.7792 215° Southwest 442 509 32,000  Level Washington Center
Thu 11:44:10 AM 37.2397 -78.8789 216° Southwest 442 509 32,000  Level Washington Center
Thu 11:45:10 AM 37.1411 -78.9686 216° Southwest 442 509 32,000  Level Washington Center
Thu 11:46:11 AM 37.0447 -79.0581 217° Southwest 442 509 32,000  Level Washington Center
Thu 11:47:12 AM 36.9483 -79.1472 216° Southwest 442 509 32,000  Level Washington Center
Thu 11:48:10 AM 36.8558 -79.2364 218° Southwest 437 503 32,000  Level Washington Center
Thu 11:49:10 AM 36.7636 -79.3228 217° Southwest 432 497 32,000  Level Washington Center
Thu 11:50:11 AM 36.6753 -79.4042 216° Southwest 432 497 32,000  Level Washington Center
Thu 11:52:13 AM 36.4719 -79.5878 216° Southwest 414 476 32,000  Level Atlanta Center
Thu 11:53:13 AM 36.3769 -79.6731 216° Southwest 414 476 32,000  Level Atlanta Center
Thu 11:54:13 AM 36.2819 -79.7581 216° Southwest 419 482 32,000  Level Atlanta Center
Thu 11:55:13 AM 36.1892 -79.8481 218° Southwest 424 488 32,000  Level Atlanta Center
Thu 11:56:13 AM 36.1019 -79.9244 215° Southwest 424 488 32,000  Level Atlanta Center
Thu 11:57:13 AM 36.0022 -79.9961 210° Southwest 424 488 32,000  Level Atlanta Center
Thu 11:58:13 AM 35.8911 -80.0478 201° Southwest 418 481 32,000  Level Atlanta Center
Thu 11:59:13 AM 35.7722 -80.1100 203° Southwest 423 487 32,000  Level Atlanta Center
Thu 12:00:13 PM 35.6881 -80.1550 203° Southwest 423 487 32,000  Level Atlanta Center
Thu 12:01:13 PM 35.5772 -80.2111 202° Southwest 423 487 32,000  Level Atlanta Center
Thu 12:02:13 PM 35.4581 -80.2703 202° Southwest 432 497 32,000  Level Atlanta Center
Thu 12:03:13 PM 35.3408 -80.3292 202° Southwest 422 486 32,000  Level Atlanta Center
Thu 12:04:13 PM 35.2339 -80.3822 202° Southwest 415 478 32,000  Level Atlanta Center
Thu 12:05:13 PM 35.1250 -80.4378 203° Southwest 431 496 32,000  Level Atlanta Center
Thu 12:06:56 PM 34.9386 -80.5300 202° Southwest 426 490 32,000  Level Jacksonville Center
Thu 12:07:55 PM 34.8311 -80.5836 202° Southwest 426 490 32,000  Level Jacksonville Center
Thu 12:08:56 PM 34.7319 -80.6342 203° Southwest 416 479 32,000  Level Jacksonville Center
Thu 12:09:56 PM 34.6244 -80.6875 202° Southwest 411 473 32,000  Level Jacksonville Center
Thu 12:10:56 PM 34.5147 -80.7381 201° Southwest 427 491 32,000  Level Jacksonville Center
Thu 12:11:56 PM 34.4094 -80.7911 203° Southwest 422 486 32,000  Level Jacksonville Center
Thu 12:12:56 PM 34.3039 -80.8464 203° Southwest 415 478 32,000  Level Jacksonville Center
Thu 12:13:56 PM 34.2044 -80.8914 201° Southwest 404 465 32,000  Level Jacksonville Center
Thu 12:14:56 PM 34.0989 -80.9414 201° Southwest 404 465 32,000  Level Jacksonville Center
Thu 12:15:55 PM 33.9953 -80.9939 203° Southwest 409 471 32,000  Level Jacksonville Center
Thu 12:16:56 PM 33.9042 -81.0333 200° South 403 464 32,000  Level Jacksonville Center
Thu 12:17:56 PM 33.7942 -81.0858 202° Southwest 408 470 32,000  Level Jacksonville Center
Thu 12:18:55 PM 33.6867 -81.1428 204° Southwest 413 475 32,000  Level Jacksonville Center
Thu 12:19:56 PM 33.5828 -81.1922 202° Southwest 413 475 32,000  Level Jacksonville Center
Thu 12:20:55 PM 33.4792 -81.2464 204° Southwest 413 475 32,000  Level Jacksonville Center
Thu 12:21:56 PM 33.3733 -81.2958 201° Southwest 413 475 32,000  Level Jacksonville Center
Thu 12:22:56 PM 33.2678 -81.3472 202° Southwest 413 475 32,000  Level Jacksonville Center
Thu 12:23:56 PM 33.1639 -81.3989 203° Southwest 413 475 32,000  Level Jacksonville Center
Thu 12:24:56 PM 33.0581 -81.4500 202° Southwest 413 475 32,000  Level Jacksonville Center
Thu 12:25:56 PM 32.9542 -81.5014 203° Southwest 413 475 32,000  Level Jacksonville Center
Thu 12:26:56 PM 32.8483 -81.5522 202° Southwest 413 475 32,000  Level Jacksonville Center
Thu 12:27:56 PM 32.7425 -81.6033 202° Southwest 413 475 32,000  Level Jacksonville Center
Thu 12:28:56 PM 32.6281 -81.6592 202° Southwest 413 475 32,000  Level Jacksonville Center
Thu 12:29:56 PM 32.5325 -81.7047 202° Southwest 420 483 32,000  Level Jacksonville Center
Thu 12:30:56 PM 32.4183 -81.7606 202° Southwest 415 478 32,000  Level Jacksonville Center
Thu 12:31:56 PM 32.3103 -81.8111 202° Southwest 415 478 32,000  Level Jacksonville Center
Thu 12:32:56 PM 32.2144 -81.8564 202° Southwest 415 478 32,000  Level Jacksonville Center
Thu 12:33:56 PM 32.1000 -81.9117 202° Southwest 410 472 32,000  Level Jacksonville Center
Thu 12:34:56 PM 31.9961 -81.9592 201° Southwest 415 478 32,000  Level Jacksonville Center
Thu 12:35:56 PM 31.8900 -82.0044 200° South 410 472 32,000  Level Jacksonville Center
Thu 12:36:56 PM 31.7858 -82.0444 198° South 405 466 32,000  Level Jacksonville Center
Thu 12:37:56 PM 31.6922 -82.0844 200° South 405 466 32,000  Level Jacksonville Center
Thu 12:38:56 PM 31.5756 -82.1317 199° South 405 466 32,000  Level Jacksonville Center
Thu 12:39:56 PM 31.4692 -82.1764 200° South 400 460 32,000  Level Jacksonville Center
Thu 12:40:56 PM 31.3631 -82.2186 199° South 408 470 32,000  Level Jacksonville Center
Thu 12:41:56 PM 31.2589 -82.2583 198° South 403 464 32,000  Level Jacksonville Center
Thu 12:42:56 PM 31.1525 -82.3003 199° South 403 464 32,000  Level Jacksonville Center
Thu 12:43:56 PM 31.0483 -82.3422 199° South 403 464 32,000 -50 Level Jacksonville Center
Thu 12:44:56 PM 30.9400 -82.3839 198° South 403 464 31,900  Descending Jacksonville Center
Thu 12:45:56 PM 30.8314 -82.4256 198° South 403 464 32,000 50 Climbing Jacksonville Center
Thu 12:46:56 PM 30.7253 -82.4672 199° South 403 464 32,000  Level Jacksonville Center
Thu 12:47:56 PM 30.6167 -82.5086 198° South 403 464 32,000 -50 Level Jacksonville Center
Thu 12:48:56 PM 30.5083 -82.5478 197° South 403 464 31,900  Descending Jacksonville Center
Thu 12:49:56 PM 30.4039 -82.5169 166° South 382 440 32,000 33 Climbing Jacksonville Center
Thu 12:51:00 PM 30.2794 -82.4734 163° South  Level FlightAware Approximate
Thu 12:51:56 PM 30.1947 -82.4239 163° South 397 457 32,000  Level Jacksonville Center
Thu 12:52:56 PM 30.0861 -82.3933 166° South 402 463 32,000 -500 Level Jacksonville Center
Thu 12:53:56 PM 29.9772 -82.3675 168° South 402 463 31,000 -500 Descending Jacksonville Center
Thu 12:54:56 PM 29.8667 -82.3489 172° South 402 463 31,000 -50 Level Jacksonville Center
Thu 12:55:56 PM 29.7558 -82.3303 172° South 402 463 30,900 -1,850 Descending Jacksonville Center
Thu 12:56:56 PM 29.6431 -82.3047 169° South 409 471 27,300 -1,950 Descending Jacksonville Center
Thu 12:57:56 PM 29.5364 -82.2839 170° South 409 471 27,000 -150 Descending Jacksonville Center
Thu 12:58:56 PM 29.4278 -82.2631 171° South 404 465 27,000 -50 Level Jacksonville Center
Thu 12:59:56 PM 29.3044 -82.2378 170° South 419 482 26,900 -500 Descending Jacksonville Center
Thu 01:00:56 PM 29.1811 -82.2172 172° South 441 507 26,000 -1,400 Descending Jacksonville Center
Thu 01:01:56 PM 29.0642 -82.1917 169° South 441 507 24,100 -1,150 Descending Jacksonville Center
Thu 01:02:56 PM 28.9536 -82.1736 172° South 431 496 23,700 -700 Descending Jacksonville Center
Thu 01:03:56 PM 28.8658 -82.1575 171° South 392 451 22,700 -2,471 Descending Jacksonville Center
Thu 01:05:46 PM 28.6833 -82.1167 169° South 374 430 16,700 -2,859 Descending Tampa TRACON
Thu 01:06:46 PM 28.5667 -82.1000 173° South 383 441 14,600 -1,700 Descending Tampa TRACON
Thu 01:07:46 PM 28.4833 -82.0833 170° South 351 404 13,300 -1,150 Descending Tampa TRACON
Thu 01:08:46 PM 28.3833 -82.0667 172° South 323 372 12,300 -1,150 Descending Tampa TRACON
Thu 01:09:46 PM 28.3000 -82.0667 180° South 305 351 11,000 -619 Descending Tampa TRACON
Thu 01:10:52 PM 28.2167 -82.0500 170° South 303 349 11,000 -150 Level Tampa TRACON
Thu 01:11:46 PM 28.1500 -82.0833 204° Southwest 298 343 10,700 -789 Descending Tampa TRACON
Thu 01:12:46 PM 28.0667 -82.1167 199° South 293 337 9,500 -1,350 Descending Tampa TRACON
Thu 01:13:46 PM 28.0000 -82.1500 204° Southwest 290 334 8,000 -1,450 Descending Tampa TRACON
Thu 01:14:46 PM 27.9167 -82.1667 190° South 284 327 6,600 -952 Descending Tampa TRACON
Thu 01:15:52 PM 27.8333 -82.2000 199° South 275 316 6,000 -298 Descending Tampa TRACON
Thu 01:16:47 PM 27.7667 -82.2333 204° Southwest 273 314 6,000  Level Tampa TRACON
Thu 01:17:46 PM 27.7167 -82.2833 222° Southwest 272 313 6,000  Level Tampa TRACON
Thu 01:18:47 PM 27.6667 -82.3333 222° Southwest 273 314 6,000 -313 Level Tampa TRACON
Thu 01:19:41 PM 27.6333 -82.4167 246° West 270 311 5,400 -526 Descending Tampa TRACON
Thu 01:20:41 PM 27.6000 -82.4833 241° Southwest 269 310 5,000 -579 Descending Tampa TRACON
Thu 01:21:35 PM 27.5833 -82.5667 257° West 267 307 4,300 -500 Descending Tampa TRACON
Thu 01:22:41 PM 27.5500 -82.6500 246° West 266 306 4,000 -714 Descending Tampa TRACON
Thu 01:23:41 PM 27.5167 -82.7167 241° Southwest 250 288 2,800 -1,200 Descending Tampa TRACON

Login

Don't have an account? Register now (free) for customized features, flight alerts, and more!